createdAt,value
2023-03-10T00:00:33.641Z,97.01
2023-03-10T00:01:33.641Z,97.22
2023-03-10T00:02:33.645Z,97.01
2023-03-10T00:03:33.631Z,97.22
2023-03-10T00:04:33.734Z,97.22
2023-03-10T00:05:33.649Z,97.22
2023-03-10T00:06:33.585Z,96.91
2023-03-10T00:07:33.588Z,97.32
2023-03-10T00:08:33.559Z,97.32
2023-03-10T00:09:33.657Z,96.70
2023-03-10T00:10:33.529Z,96.80
2023-03-10T00:11:33.523Z,97.01
2023-03-10T00:12:33.504Z,96.70
2023-03-10T00:13:33.522Z,96.70
2023-03-10T00:14:33.493Z,96.64
2023-03-10T00:15:33.526Z,96.54
2023-03-10T00:16:33.457Z,96.75
2023-03-10T00:17:33.469Z,96.75
2023-03-10T00:18:33.461Z,96.75
2023-03-10T00:19:33.427Z,97.06
2023-03-10T00:20:33.426Z,97.36
2023-03-10T00:21:33.404Z,97.36
2023-03-10T00:22:33.387Z,97.26
2023-03-10T00:23:35.690Z,97.16
2023-03-10T00:24:33.364Z,97.16
2023-03-10T00:25:33.381Z,97.06
2023-03-10T00:26:33.364Z,97.26
2023-03-10T00:27:33.337Z,96.75
2023-03-10T00:28:33.335Z,96.95
2023-03-10T00:29:33.340Z,97.06
2023-03-10T00:30:33.295Z,96.95
2023-03-10T00:31:33.322Z,96.95
2023-03-10T00:32:33.344Z,97.01
2023-03-10T00:33:33.295Z,97.36
2023-03-10T00:34:33.252Z,97.32
2023-03-10T00:35:33.265Z,96.91
2023-03-10T00:36:33.237Z,97.26
2023-03-10T00:37:33.229Z,96.70
2023-03-10T00:38:33.238Z,97.06
2023-03-10T00:39:33.200Z,96.91
2023-03-10T00:40:33.183Z,97.01
2023-03-10T00:41:33.199Z,96.97
2023-03-10T00:42:33.190Z,97.17
2023-03-10T00:43:33.175Z,96.76
2023-03-10T00:44:33.149Z,96.76
2023-03-10T00:45:33.132Z,96.66
2023-03-10T00:46:33.401Z,96.34
2023-03-10T00:47:33.137Z,96.66
2023-03-10T00:48:33.095Z,96.45
2023-03-10T00:49:33.103Z,96.66
2023-03-10T00:50:33.082Z,96.76
2023-03-10T00:51:33.064Z,96.34
2023-03-10T00:52:33.055Z,96.45
2023-03-10T00:53:33.065Z,96.66
2023-03-10T00:54:33.024Z,96.14
2023-03-10T00:55:33.019Z,96.14
2023-03-10T00:56:33.022Z,96.03
2023-03-10T00:57:33.016Z,96.03
2023-03-10T00:58:33.002Z,96.24
2023-03-10T00:59:47.849Z,96.34
2023-03-10T01:00:33.954Z,96.34
2023-03-10T01:01:33.052Z,96.14
2023-03-10T01:02:32.944Z,95.94
2023-03-10T01:03:32.931Z,96.14
2023-03-10T01:04:33.001Z,96.24
2023-03-10T01:05:32.925Z,96.14
2023-03-10T01:06:32.894Z,96.34
2023-03-10T01:07:32.888Z,96.45
2023-03-10T01:08:32.874Z,96.55
2023-03-10T01:09:32.875Z,96.66
2023-03-10T01:10:32.839Z,96.76
2023-03-10T01:11:32.837Z,96.97
2023-03-10T01:12:32.821Z,96.66
2023-03-10T01:13:32.826Z,96.66
2023-03-10T01:14:32.828Z,96.76
2023-03-10T01:15:32.793Z,96.76
2023-03-10T01:16:32.882Z,96.66
2023-03-10T01:17:32.760Z,96.45
2023-03-10T01:18:32.752Z,96.76
2023-03-10T01:19:32.825Z,96.97
2023-03-10T01:20:32.741Z,96.45
2023-03-10T01:21:32.712Z,96.66
2023-03-10T01:22:32.707Z,96.34
2023-03-10T01:23:32.697Z,96.86
2023-03-10T01:24:32.704Z,96.76
2023-03-10T01:25:32.665Z,96.76
2023-03-10T01:26:32.673Z,96.76
2023-03-10T01:27:32.652Z,96.86
2023-03-10T01:28:32.649Z,96.80
2023-03-10T01:29:32.787Z,96.80
2023-03-10T01:30:32.614Z,96.66
2023-03-10T01:31:32.663Z,96.97
2023-03-10T01:32:32.666Z,96.66
2023-03-10T01:33:32.571Z,96.45
2023-03-10T01:34:32.596Z,97.01
2023-03-10T01:35:32.618Z,96.76
2023-03-10T01:36:32.567Z,96.45
2023-03-10T01:37:32.553Z,96.34
2023-03-10T01:38:32.530Z,96.45
2023-03-10T01:39:32.505Z,96.34
2023-03-10T01:40:32.494Z,96.29
2023-03-10T01:41:32.480Z,96.24
2023-03-10T01:42:32.499Z,95.94
2023-03-10T01:43:32.455Z,96.03
2023-03-10T01:44:32.476Z,96.24
2023-03-10T01:45:32.449Z,96.24
2023-03-10T01:46:32.496Z,95.31
2023-03-10T01:47:32.418Z,95.42
2023-03-10T01:48:32.406Z,95.37
2023-03-10T01:49:32.402Z,95.37
2023-03-10T01:50:32.409Z,95.37
2023-03-10T01:51:32.363Z,94.60
2023-03-10T01:52:32.368Z,94.92
2023-03-10T01:53:32.359Z,94.71
2023-03-10T01:54:32.334Z,94.50
2023-03-10T01:55:32.339Z,94.46
2023-03-10T01:56:32.316Z,94.15
2023-03-10T01:57:32.317Z,94.25
2023-03-10T01:58:32.289Z,94.46
2023-03-10T01:59:32.290Z,94.56
2023-03-10T02:00:32.328Z,94.46
2023-03-10T02:01:32.270Z,94.56
2023-03-10T02:02:32.259Z,94.35
2023-03-10T02:03:32.230Z,94.15
2023-03-10T02:04:32.220Z,94.46
2023-03-10T02:05:32.223Z,94.25
2023-03-10T02:06:32.199Z,94.46
2023-03-10T02:07:32.182Z,94.25
2023-03-10T02:08:32.188Z,94.15
2023-03-10T02:09:32.154Z,94.35
2023-03-10T02:10:32.175Z,94.56
2023-03-10T02:11:32.132Z,94.42
2023-03-10T02:12:32.148Z,94.15
2023-03-10T02:13:32.145Z,94.35
2023-03-10T02:14:32.114Z,94.31
2023-03-10T02:15:32.091Z,94.25
2023-03-10T02:16:32.120Z,94.46
2023-03-10T02:17:32.176Z,94.25
2023-03-10T02:18:32.066Z,94.56
2023-03-10T02:19:32.065Z,94.82
2023-03-10T02:20:32.052Z,94.77
2023-03-10T02:21:32.038Z,94.67
2023-03-10T02:22:32.035Z,95.07
2023-03-10T02:23:31.999Z,95.22
2023-03-10T02:24:31.998Z,94.97
2023-03-10T02:25:31.992Z,94.77
2023-03-10T02:26:31.984Z,95.07
2023-03-10T02:27:31.973Z,95.28
2023-03-10T02:28:31.948Z,94.97
2023-03-10T02:29:31.931Z,94.97
2023-03-10T02:30:31.921Z,95.18
2023-03-10T02:31:31.929Z,94.87
2023-03-10T02:32:32.081Z,95.24
2023-03-10T02:33:31.967Z,94.82
2023-03-10T02:34:31.877Z,95.14
2023-03-10T02:35:31.886Z,94.82
2023-03-10T02:36:31.958Z,94.93
2023-03-10T02:37:31.866Z,94.82
2023-03-10T02:38:31.841Z,94.72
2023-03-10T02:39:31.840Z,94.21
2023-03-10T02:40:31.806Z,94.21
2023-03-10T02:41:31.823Z,94.31
2023-03-10T02:42:31.821Z,94.52
2023-03-10T02:43:31.780Z,94.21
2023-03-10T02:44:31.786Z,94.31
2023-03-10T02:45:31.812Z,94.52
2023-03-10T02:46:31.870Z,94.42
2023-03-10T02:47:31.757Z,94.42
2023-03-10T02:48:31.715Z,94.42
2023-03-10T02:49:31.720Z,94.31
2023-03-10T02:50:31.692Z,94.31
2023-03-10T02:51:31.703Z,94.21
2023-03-10T02:52:31.681Z,94.10
2023-03-10T02:53:31.648Z,94.31
2023-03-10T02:54:31.643Z,94.52
2023-03-10T02:55:31.628Z,94.00
2023-03-10T02:56:31.637Z,94.10
2023-03-10T02:57:31.616Z,93.90
2023-03-10T02:58:31.593Z,94.00
2023-03-10T02:59:31.612Z,94.10
2023-03-10T03:00:31.577Z,93.28
2023-03-10T03:01:31.584Z,94.00
2023-03-10T03:02:31.551Z,93.59
2023-03-10T03:03:31.570Z,93.79
2023-03-10T03:04:31.544Z,93.49
2023-03-10T03:05:31.597Z,94.10
2023-03-10T03:06:31.505Z,93.28
2023-03-10T03:07:31.487Z,93.59
2023-03-10T03:08:31.481Z,93.49
2023-03-10T03:09:31.494Z,93.69
2023-03-10T03:10:31.458Z,93.38
2023-03-10T03:11:31.439Z,93.07
2023-03-10T03:12:31.480Z,93.18
2023-03-10T03:13:31.421Z,92.97
2023-03-10T03:14:31.451Z,92.61
2023-03-10T03:15:31.407Z,92.00
2023-03-10T03:16:31.463Z,92.41
2023-03-10T03:17:31.375Z,92.41
2023-03-10T03:18:31.369Z,92.41
2023-03-10T03:19:31.373Z,92.72
2023-03-10T03:20:31.348Z,92.61
2023-03-10T03:21:31.341Z,92.41
2023-03-10T03:22:31.320Z,92.21
2023-03-10T03:23:31.333Z,92.21
2023-03-10T03:24:31.310Z,92.41
2023-03-10T03:25:31.280Z,92.51
2023-03-10T03:26:31.303Z,92.41
2023-03-10T03:27:31.274Z,92.31
2023-03-10T03:28:31.250Z,92.51
2023-03-10T03:29:31.238Z,92.51
2023-03-10T03:30:31.228Z,92.21
2023-03-10T03:31:31.345Z,92.51
2023-03-10T03:32:31.319Z,92.31
2023-03-10T03:33:31.226Z,92.51
2023-03-10T03:34:31.185Z,92.41
2023-03-10T03:35:31.215Z,92.51
2023-03-10T03:36:31.166Z,93.44
2023-03-10T03:37:31.161Z,92.93
2023-03-10T03:38:31.156Z,93.18
2023-03-10T03:39:31.209Z,93.13
2023-03-10T03:40:31.113Z,93.03
2023-03-10T03:41:31.097Z,93.03
2023-03-10T03:42:31.091Z,93.34
2023-03-10T03:43:31.099Z,92.97
2023-03-10T03:44:31.068Z,92.76
2023-03-10T03:45:31.089Z,93.07
2023-03-10T03:46:31.089Z,93.07
2023-03-10T03:47:31.025Z,93.07
2023-03-10T03:48:31.027Z,93.49
2023-03-10T03:49:31.022Z,92.86
2023-03-10T03:50:31.011Z,93.18
2023-03-10T03:51:31.018Z,93.49
2023-03-10T03:52:30.984Z,93.28
2023-03-10T03:53:30.991Z,93.07
2023-03-10T03:54:30.989Z,94.04
2023-03-10T03:55:30.960Z,93.79
2023-03-10T03:56:30.947Z,93.79
2023-03-10T03:57:30.927Z,94.10
2023-03-10T03:58:30.909Z,93.69
2023-03-10T03:59:30.890Z,93.73
2023-03-10T04:00:30.907Z,94.00
2023-03-10T04:01:30.871Z,94.87
2023-03-10T04:02:30.978Z,94.67
2023-03-10T04:03:30.910Z,94.15
2023-03-10T04:04:30.860Z,94.31
2023-03-10T04:05:30.828Z,94.31
2023-03-10T04:06:30.820Z,94.56
2023-03-10T04:07:30.800Z,94.21
2023-03-10T04:08:30.801Z,94.46
2023-03-10T04:09:30.866Z,94.25
2023-03-10T04:10:30.778Z,94.46
2023-03-10T04:11:30.756Z,94.56
2023-03-10T04:12:30.765Z,94.31
2023-03-10T04:13:30.758Z,94.46
2023-03-10T04:14:30.848Z,94.35
2023-03-10T04:15:30.779Z,94.46
2023-03-10T04:16:30.702Z,94.56
2023-03-10T04:17:30.700Z,95.07
2023-03-10T04:18:30.680Z,94.97
2023-03-10T04:19:30.686Z,95.03
2023-03-10T04:20:30.676Z,94.56
2023-03-10T04:21:30.639Z,94.87
2023-03-10T04:22:30.647Z,94.62
2023-03-10T04:23:30.633Z,94.62
2023-03-10T04:24:30.656Z,94.21
2023-03-10T04:25:30.622Z,94.31
2023-03-10T04:26:30.605Z,94.42
2023-03-10T04:27:30.572Z,94.42
2023-03-10T04:28:30.564Z,94.21
2023-03-10T04:29:30.572Z,94.42
2023-03-10T04:30:30.543Z,94.42
2023-03-10T04:31:30.597Z,94.52
2023-03-10T04:32:30.566Z,94.42
2023-03-10T04:33:30.508Z,94.62
2023-03-10T04:34:30.517Z,94.31
2023-03-10T04:35:30.482Z,94.21
2023-03-10T04:36:30.477Z,94.52
2023-03-10T04:37:30.460Z,94.52
2023-03-10T04:38:30.461Z,94.62
2023-03-10T04:39:30.454Z,94.62
2023-03-10T04:40:30.437Z,94.42
2023-03-10T04:41:30.445Z,94.10
2023-03-10T04:42:30.427Z,94.10
2023-03-10T04:43:30.408Z,94.10
2023-03-10T04:44:31.625Z,94.42
2023-03-10T04:45:30.367Z,94.31
2023-03-10T04:46:30.452Z,94.10
2023-03-10T04:47:30.344Z,94.47
2023-03-10T04:48:30.357Z,94.42
2023-03-10T04:49:30.323Z,94.10
2023-03-10T04:50:30.334Z,94.27
2023-03-10T04:51:30.304Z,94.62
2023-03-10T04:52:30.294Z,94.47
2023-03-10T04:53:30.294Z,93.90
2023-03-10T04:54:30.271Z,94.52
2023-03-10T04:55:30.251Z,94.21
2023-03-10T04:56:30.258Z,94.42
2023-03-10T04:57:30.247Z,94.42
2023-03-10T04:58:30.241Z,94.21
2023-03-10T04:59:30.199Z,94.62
2023-03-10T05:00:30.274Z,94.62
2023-03-10T05:01:30.221Z,94.62
2023-03-10T05:02:30.185Z,94.42
2023-03-10T05:03:30.173Z,94.72
2023-03-10T05:04:30.242Z,94.62
2023-03-10T05:05:30.133Z,94.52
2023-03-10T05:06:30.177Z,94.52
2023-03-10T05:07:30.103Z,94.31
2023-03-10T05:08:30.127Z,94.21
2023-03-10T05:09:30.111Z,94.31
2023-03-10T05:10:30.089Z,94.42
2023-03-10T05:11:30.090Z,94.31
2023-03-10T05:12:30.057Z,94.42
2023-03-10T05:13:31.826Z,94.42
2023-03-10T05:14:30.043Z,94.21
2023-03-10T05:15:30.018Z,94.62
2023-03-10T05:16:30.111Z,94.31
2023-03-10T05:17:30.035Z,94.21
2023-03-10T05:18:29.986Z,94.42
2023-03-10T05:19:30.009Z,94.42
2023-03-10T05:20:29.993Z,94.31
2023-03-10T05:21:29.977Z,94.31
2023-03-10T05:22:29.936Z,94.21
2023-03-10T05:23:29.917Z,94.10
2023-03-10T05:24:29.915Z,94.10
2023-03-10T05:25:29.895Z,94.10
2023-03-10T05:26:29.924Z,94.21
2023-03-10T05:27:29.879Z,94.00
2023-03-10T05:28:29.858Z,94.42
2023-03-10T05:29:29.876Z,94.52
2023-03-10T05:30:29.858Z,94.31
2023-03-10T05:31:30.143Z,94.31
2023-03-10T05:32:29.860Z,94.21
2023-03-10T05:33:31.513Z,94.27
2023-03-10T05:34:29.791Z,94.47
2023-03-10T05:35:29.812Z,94.42
2023-03-10T05:36:29.771Z,94.47
2023-03-10T05:37:29.770Z,94.99
2023-03-10T05:38:29.759Z,94.47
2023-03-10T05:39:29.757Z,94.27
2023-03-10T05:40:29.728Z,94.57
2023-03-10T05:41:29.742Z,94.17
2023-03-10T05:42:29.703Z,94.37
2023-03-10T05:43:29.752Z,94.47
2023-03-10T05:44:29.765Z,94.37
2023-03-10T05:45:29.686Z,94.27
2023-03-10T05:46:29.838Z,94.27
2023-03-10T05:47:29.803Z,94.37
2023-03-10T05:48:29.638Z,94.37
2023-03-10T05:49:29.646Z,94.17
2023-03-10T05:50:29.654Z,94.68
2023-03-10T05:51:29.626Z,94.27
2023-03-10T05:52:29.594Z,94.06
2023-03-10T05:53:29.612Z,93.96
2023-03-10T05:54:29.572Z,94.27
2023-03-10T05:55:29.580Z,94.02
2023-03-10T05:56:29.571Z,94.17
2023-03-10T05:57:29.555Z,94.27
2023-03-10T05:58:29.528Z,94.53
2023-03-10T05:59:29.514Z,94.17
2023-03-10T06:00:29.526Z,94.27
2023-03-10T06:01:29.524Z,94.37
2023-03-10T06:02:29.507Z,94.37
2023-03-10T06:03:29.610Z,94.47
2023-03-10T06:04:29.571Z,94.27
2023-03-10T06:05:29.485Z,94.27
2023-03-10T06:06:29.430Z,94.37
2023-03-10T06:07:29.469Z,94.12
2023-03-10T06:08:29.419Z,94.32
2023-03-10T06:09:29.400Z,94.43
2023-03-10T06:10:29.414Z,93.91
2023-03-10T06:11:29.401Z,94.02
2023-03-10T06:12:29.368Z,94.37
2023-03-10T06:13:29.356Z,94.17
2023-03-10T06:14:29.344Z,94.37
2023-03-10T06:15:29.333Z,94.47
2023-03-10T06:16:29.397Z,94.32
2023-03-10T06:17:29.346Z,94.37
2023-03-10T06:18:29.331Z,94.32
2023-03-10T06:19:29.325Z,94.32
2023-03-10T06:20:29.301Z,94.32
2023-03-10T06:21:29.321Z,94.32
2023-03-10T06:22:31.252Z,94.23
2023-03-10T06:23:29.240Z,94.32
2023-03-10T06:24:29.223Z,94.12
2023-03-10T06:25:29.215Z,94.32
2023-03-10T06:26:29.232Z,94.32
2023-03-10T06:27:29.193Z,94.12
2023-03-10T06:28:29.175Z,94.43
2023-03-10T06:29:29.178Z,94.43
2023-03-10T06:30:29.157Z,94.32
2023-03-10T06:31:29.333Z,94.89
2023-03-10T06:32:29.186Z,94.57
2023-03-10T06:33:29.143Z,94.68
2023-03-10T06:34:29.113Z,95.09
2023-03-10T06:35:29.105Z,94.47
2023-03-10T06:36:29.107Z,95.09
2023-03-10T06:37:29.125Z,94.99
2023-03-10T06:38:29.093Z,94.53
2023-03-10T06:39:29.126Z,94.32
2023-03-10T06:40:29.051Z,94.95
2023-03-10T06:41:29.048Z,95.05
2023-03-10T06:42:29.083Z,94.74
2023-03-10T06:43:29.013Z,94.84
2023-03-10T06:44:29.015Z,94.53
2023-03-10T06:45:28.991Z,94.64
2023-03-10T06:46:28.998Z,95.15
2023-03-10T06:47:28.966Z,95.05
2023-03-10T06:48:28.975Z,94.84
2023-03-10T06:49:28.958Z,95.05
2023-03-10T06:50:31.509Z,94.95
2023-03-10T06:51:28.922Z,95.36
2023-03-10T06:52:28.922Z,96.18
2023-03-10T06:53:28.898Z,96.02
2023-03-10T06:54:28.889Z,95.81
2023-03-10T06:55:28.880Z,96.12
2023-03-10T06:56:28.895Z,96.28
2023-03-10T06:57:28.860Z,96.53
2023-03-10T06:58:28.837Z,96.39
2023-03-10T06:59:28.829Z,96.44
2023-03-10T07:00:28.836Z,97.16
2023-03-10T07:01:29.112Z,97.16
2023-03-10T07:02:28.817Z,97.16
2023-03-10T07:03:28.805Z,96.64
2023-03-10T07:04:28.815Z,96.95
2023-03-10T07:05:28.867Z,96.95
2023-03-10T07:06:28.744Z,96.74
2023-03-10T07:07:28.743Z,97.01
2023-03-10T07:08:28.747Z,97.11
2023-03-10T07:09:28.747Z,97.01
2023-03-10T07:10:28.691Z,96.49
2023-03-10T07:11:28.686Z,96.03
2023-03-10T07:12:28.671Z,96.14
2023-03-10T07:13:28.725Z,96.24
2023-03-10T07:14:28.686Z,95.93
2023-03-10T07:15:28.640Z,95.62
2023-03-10T07:16:28.636Z,95.58
2023-03-10T07:17:28.614Z,95.00
2023-03-10T07:18:28.624Z,94.90
2023-03-10T07:19:28.596Z,94.96
2023-03-10T07:20:28.587Z,95.00
2023-03-10T07:21:28.613Z,95.06
2023-03-10T07:22:28.571Z,95.17
2023-03-10T07:23:28.551Z,94.85
2023-03-10T07:24:28.557Z,95.10
2023-03-10T07:25:28.517Z,94.49
2023-03-10T07:26:28.537Z,94.65
2023-03-10T07:27:28.497Z,94.55
2023-03-10T07:28:28.477Z,95.00
2023-03-10T07:29:28.475Z,95.27
2023-03-10T07:30:28.507Z,94.45
2023-03-10T07:31:28.538Z,94.60
2023-03-10T07:32:28.571Z,94.81
2023-03-10T07:33:28.434Z,94.60
2023-03-10T07:34:28.422Z,94.60
2023-03-10T07:35:28.404Z,94.56
2023-03-10T07:36:28.388Z,94.15
2023-03-10T07:37:28.404Z,94.15
2023-03-10T07:38:28.407Z,94.15
2023-03-10T07:39:28.363Z,93.95
2023-03-10T07:40:28.400Z,93.70
2023-03-10T07:41:28.351Z,93.39
2023-03-10T07:42:28.334Z,92.67
2023-03-10T07:43:28.312Z,92.83
2023-03-10T07:44:28.341Z,92.73
2023-03-10T07:45:28.330Z,92.77
2023-03-10T07:46:28.396Z,92.63
2023-03-10T07:47:28.283Z,92.57
2023-03-10T07:48:28.254Z,91.91
2023-03-10T07:49:28.278Z,92.73
2023-03-10T07:50:28.300Z,92.77
2023-03-10T07:51:28.253Z,92.77
2023-03-10T07:52:28.208Z,92.73
2023-03-10T07:53:28.232Z,92.87
2023-03-10T07:54:28.182Z,92.83
2023-03-10T07:55:28.213Z,92.77
2023-03-10T07:56:28.177Z,92.93
2023-03-10T07:57:28.159Z,92.73
2023-03-10T07:58:28.138Z,92.97
2023-03-10T07:59:28.151Z,92.73
2023-03-10T08:00:28.198Z,92.21
2023-03-10T08:01:28.124Z,92.42
2023-03-10T08:02:28.112Z,92.93
2023-03-10T08:03:28.155Z,92.83
2023-03-10T08:04:28.227Z,92.83
2023-03-10T08:05:28.206Z,92.63
2023-03-10T08:06:28.069Z,92.11
2023-03-10T08:07:28.068Z,92.42
2023-03-10T08:08:28.035Z,92.21
2023-03-10T08:09:28.043Z,92.11
2023-03-10T08:10:28.048Z,92.27
2023-03-10T08:11:28.002Z,91.80
2023-03-10T08:12:27.983Z,91.35
2023-03-10T08:13:28.040Z,92.27
2023-03-10T08:14:27.986Z,92.17
2023-03-10T08:15:27.972Z,92.21
2023-03-10T08:16:27.985Z,91.55
2023-03-10T08:17:27.933Z,91.91
2023-03-10T08:18:27.912Z,91.39
2023-03-10T08:19:27.955Z,91.91
2023-03-10T08:20:27.896Z,91.80
2023-03-10T08:21:27.894Z,91.49
2023-03-10T08:22:27.865Z,91.60
2023-03-10T08:23:27.875Z,91.70
2023-03-10T08:24:27.845Z,91.91
2023-03-10T08:25:27.859Z,92.52
2023-03-10T08:26:27.852Z,92.11
2023-03-10T08:27:29.125Z,92.21
2023-03-10T08:28:27.817Z,91.95
2023-03-10T08:29:27.793Z,92.21
2023-03-10T08:30:27.769Z,92.42
2023-03-10T08:31:27.854Z,92.32
2023-03-10T08:32:27.805Z,92.11
2023-03-10T08:33:27.767Z,91.80
2023-03-10T08:34:27.725Z,92.21
2023-03-10T08:35:27.719Z,92.52
2023-03-10T08:36:27.705Z,92.21
2023-03-10T08:37:27.724Z,92.73
2023-03-10T08:38:27.714Z,92.52
2023-03-10T08:39:27.824Z,92.73
2023-03-10T08:40:27.665Z,92.73
2023-03-10T08:41:27.700Z,92.21
2023-03-10T08:42:27.641Z,92.21
2023-03-10T08:43:27.665Z,91.80
2023-03-10T08:44:27.628Z,91.91
2023-03-10T08:45:27.623Z,92.21
2023-03-10T08:46:27.633Z,92.07
2023-03-10T08:47:30.467Z,91.45
2023-03-10T08:48:27.566Z,91.66
2023-03-10T08:49:27.596Z,92.03
2023-03-10T08:50:27.556Z,91.82
2023-03-10T08:51:27.540Z,91.00
2023-03-10T08:52:27.528Z,90.59
2023-03-10T08:53:27.539Z,90.38
2023-03-10T08:54:27.521Z,89.87
2023-03-10T08:55:27.501Z,90.28
2023-03-10T08:56:27.517Z,89.15
2023-03-10T08:57:27.538Z,89.56
2023-03-10T08:58:27.464Z,89.15
2023-03-10T08:59:27.471Z,89.25
2023-03-10T09:00:27.444Z,89.04
2023-03-10T09:01:27.439Z,89.25
2023-03-10T09:02:27.495Z,89.31
2023-03-10T09:03:29.596Z,89.62
2023-03-10T09:04:27.405Z,88.70
2023-03-10T09:05:27.426Z,89.21
2023-03-10T09:06:27.369Z,89.42
2023-03-10T09:07:27.429Z,88.18
2023-03-10T09:08:28.002Z,88.59
2023-03-10T09:09:27.340Z,89.42
2023-03-10T09:10:27.358Z,88.70
2023-03-10T09:11:27.358Z,88.66
2023-03-10T09:12:33.192Z,88.29
2023-03-10T09:13:29.383Z,88.35
2023-03-10T09:14:27.291Z,87.98
2023-03-10T09:15:27.276Z,88.04
2023-03-10T09:16:27.304Z,88.08
2023-03-10T09:17:27.242Z,88.29
2023-03-10T09:18:27.261Z,87.98
2023-03-10T09:19:27.219Z,88.08
2023-03-10T09:20:29.332Z,87.67
2023-03-10T09:21:27.219Z,87.88
2023-03-10T09:22:27.209Z,88.39
2023-03-10T09:23:27.193Z,88.39
2023-03-10T09:24:27.161Z,88.18
2023-03-10T09:25:27.149Z,88.08
2023-03-10T09:26:27.147Z,87.98
2023-03-10T09:27:27.173Z,88.49
2023-03-10T09:28:27.109Z,88.39
2023-03-10T09:29:42.052Z,88.59
2023-03-10T09:30:28.086Z,88.08
2023-03-10T09:31:27.182Z,88.18
2023-03-10T09:32:27.129Z,88.39
2023-03-10T09:33:27.068Z,89.31
2023-03-10T09:34:27.045Z,89.31
2023-03-10T09:35:27.105Z,88.39
2023-03-10T09:36:27.101Z,89.42
2023-03-10T09:37:27.029Z,89.42
2023-03-10T09:38:27.031Z,90.09
2023-03-10T09:39:26.991Z,89.93
2023-03-10T09:40:26.992Z,89.99
2023-03-10T09:41:26.974Z,90.61
2023-03-10T09:42:37.436Z,91.33
2023-03-10T09:43:27.965Z,90.97
2023-03-10T09:44:26.949Z,90.56
2023-03-10T09:45:26.951Z,90.97
2023-03-10T09:46:26.921Z,90.05
2023-03-10T09:47:26.899Z,89.84
2023-03-10T09:48:26.914Z,89.54
2023-03-10T09:49:26.925Z,89.23
2023-03-10T09:50:26.880Z,89.23
2023-03-10T09:51:26.851Z,89.13
2023-03-10T09:52:26.875Z,89.33
2023-03-10T09:53:26.850Z,89.33
2023-03-10T09:54:26.863Z,89.43
2023-03-10T09:55:26.802Z,89.03
2023-03-10T09:56:28.943Z,89.54
2023-03-10T09:57:26.807Z,89.37
2023-03-10T09:58:26.775Z,89.03
2023-03-10T09:59:26.792Z,88.76
2023-03-10T10:00:27.498Z,89.37
2023-03-10T10:01:26.773Z,89.54
2023-03-10T10:02:26.725Z,89.43
2023-03-10T10:03:26.738Z,89.23
2023-03-10T10:04:26.797Z,88.31
2023-03-10T10:05:26.729Z,87.59
2023-03-10T10:06:28.493Z,87.90
2023-03-10T10:07:26.710Z,88.10
2023-03-10T10:08:28.686Z,88.00
2023-03-10T10:09:26.642Z,88.31
2023-03-10T10:10:26.650Z,87.90
2023-03-10T10:11:29.604Z,88.68
2023-03-10T10:12:26.633Z,88.17
2023-03-10T10:13:26.612Z,87.82
2023-03-10T10:14:30.004Z,87.30
2023-03-10T10:15:26.571Z,86.99
2023-03-10T10:16:34.225Z,87.41
2023-03-10T10:17:27.632Z,87.06
2023-03-10T10:18:26.728Z,86.96
2023-03-10T10:19:26.535Z,87.37
2023-03-10T10:20:26.520Z,87.37
2023-03-10T10:21:33.615Z,86.44
2023-03-10T10:22:27.530Z,86.44
2023-03-10T10:23:26.482Z,85.31
2023-03-10T10:24:26.493Z,85.01
2023-03-10T10:25:26.464Z,85.22
2023-03-10T10:26:26.505Z,84.91
2023-03-10T10:27:26.566Z,83.68
2023-03-10T10:28:27.258Z,85.05
2023-03-10T10:29:26.436Z,84.74
2023-03-10T10:30:27.282Z,84.64
2023-03-10T10:31:26.468Z,84.84
2023-03-10T10:32:26.428Z,85.25
2023-03-10T10:33:26.377Z,85.05
2023-03-10T10:34:26.365Z,85.36
2023-03-10T10:35:26.393Z,84.91
2023-03-10T10:36:26.363Z,85.11
2023-03-10T10:37:26.315Z,85.01
2023-03-10T10:38:26.317Z,84.39
2023-03-10T10:39:28.149Z,84.60
2023-03-10T10:40:26.310Z,83.58
2023-03-10T10:41:26.295Z,83.88
2023-03-10T10:42:26.270Z,83.78
2023-03-10T10:43:26.251Z,83.17
2023-03-10T10:44:26.241Z,82.71
2023-03-10T10:45:26.244Z,83.47
2023-03-10T10:46:26.264Z,82.86
2023-03-10T10:47:26.429Z,82.65
2023-03-10T10:48:26.198Z,82.45
2023-03-10T10:49:26.220Z,82.96
2023-03-10T10:50:26.178Z,83.17
2023-03-10T10:51:26.205Z,82.35
2023-03-10T10:52:34.988Z,82.65
2023-03-10T10:53:26.173Z,82.35
2023-03-10T10:54:26.137Z,82.49
2023-03-10T10:55:26.114Z,82.86
2023-03-10T10:56:26.141Z,82.86
2023-03-10T10:57:26.090Z,82.65
2023-03-10T10:58:26.086Z,82.86
2023-03-10T10:59:26.066Z,82.45
2023-03-10T11:00:26.077Z,82.86
2023-03-10T11:01:26.099Z,82.96
2023-03-10T11:02:26.111Z,82.35
2023-03-10T11:03:26.022Z,81.32
2023-03-10T11:04:26.015Z,82.65
2023-03-10T11:05:26.025Z,82.55
2023-03-10T11:06:26.013Z,82.96
2023-03-10T11:07:25.985Z,82.86
2023-03-10T11:08:25.971Z,82.76
2023-03-10T11:09:25.956Z,82.96
2023-03-10T11:10:25.972Z,82.86
2023-03-10T11:11:25.935Z,83.47
2023-03-10T11:12:25.982Z,83.27
2023-03-10T11:13:25.912Z,82.92
2023-03-10T11:14:25.906Z,83.13
2023-03-10T11:15:25.951Z,82.48
2023-03-10T11:16:25.878Z,82.34
2023-03-10T11:17:25.859Z,82.43
2023-03-10T11:18:25.855Z,82.43
2023-03-10T11:19:25.873Z,82.20
2023-03-10T11:20:25.833Z,82.09
2023-03-10T11:21:25.836Z,81.48
2023-03-10T11:22:25.805Z,82.97
2023-03-10T11:23:25.867Z,79.74
2023-03-10T11:24:26.040Z,79.84
2023-03-10T11:25:25.778Z,78.11
2023-03-10T11:26:25.759Z,79.33
2023-03-10T11:27:25.745Z,79.74
2023-03-10T11:28:25.764Z,78.99
2023-03-10T11:29:25.813Z,80.69
2023-03-10T11:30:26.071Z,80.28
2023-03-10T11:31:25.764Z,80.24
2023-03-10T11:32:25.790Z,79.28
2023-03-10T11:33:25.675Z,77.04
2023-03-10T11:34:25.806Z,78.27
2023-03-10T11:35:25.654Z,78.12
2023-03-10T11:36:25.642Z,77.92
2023-03-10T11:37:25.676Z,77.41
2023-03-10T11:38:25.622Z,78.12
2023-03-10T11:39:25.603Z,77.21
2023-03-10T11:40:25.599Z,76.43
2023-03-10T11:41:25.608Z,76.36
2023-03-10T11:42:26.250Z,77.38
2023-03-10T11:43:25.566Z,77.38
2023-03-10T11:44:25.549Z,79.73
2023-03-10T11:45:25.582Z,78.81
2023-03-10T11:46:25.588Z,79.52
2023-03-10T11:47:25.507Z,78.09
2023-03-10T11:48:25.525Z,78.88
2023-03-10T11:49:25.503Z,78.43
2023-03-10T11:50:25.482Z,77.72
2023-03-10T11:51:25.486Z,77.31
2023-03-10T11:52:25.478Z,75.27
2023-03-10T11:53:25.490Z,75.98
2023-03-10T11:54:26.904Z,77.31
2023-03-10T11:55:25.433Z,76.39
2023-03-10T11:56:25.426Z,76.29
2023-03-10T11:57:25.400Z,77.82
2023-03-10T11:58:25.418Z,77.58
2023-03-10T11:59:25.377Z,76.35
2023-03-10T12:00:26.140Z,75.81
2023-03-10T12:01:25.356Z,75.13
2023-03-10T12:02:25.363Z,76.22
2023-03-10T12:03:25.361Z,76.93
2023-03-10T12:04:25.328Z,75.40
2023-03-10T12:05:25.388Z,73.88
2023-03-10T12:06:26.733Z,73.77
2023-03-10T12:07:25.303Z,74.38
2023-03-10T12:08:25.289Z,74.83
2023-03-10T12:09:25.315Z,74.62
2023-03-10T12:10:25.264Z,75.13
2023-03-10T12:11:25.245Z,75.71
2023-03-10T12:12:26.157Z,74.49
2023-03-10T12:13:25.238Z,75.20
2023-03-10T12:14:25.238Z,73.74
2023-03-10T12:15:25.199Z,73.26
2023-03-10T12:16:25.259Z,74.49
2023-03-10T12:17:25.184Z,73.16
2023-03-10T12:18:26.947Z,74.08
2023-03-10T12:19:25.165Z,73.97
2023-03-10T12:20:25.179Z,74.21
2023-03-10T12:21:25.172Z,74.21
2023-03-10T12:22:25.158Z,74.01
2023-03-10T12:23:25.143Z,74.73
2023-03-10T12:24:25.118Z,75.54
2023-03-10T12:25:25.131Z,74.11
2023-03-10T12:26:25.099Z,75.10
2023-03-10T12:27:25.063Z,73.91
2023-03-10T12:28:25.084Z,73.97
2023-03-10T12:29:25.059Z,73.30
2023-03-10T12:30:25.986Z,74.21
2023-03-10T12:31:25.076Z,74.35
2023-03-10T12:32:25.076Z,75.48
2023-03-10T12:33:25.013Z,75.37
2023-03-10T12:34:24.999Z,75.48
2023-03-10T12:35:24.971Z,75.57
2023-03-10T12:36:27.636Z,75.61
2023-03-10T12:37:24.959Z,75.00
2023-03-10T12:38:24.965Z,74.29
2023-03-10T12:39:24.932Z,75.61
2023-03-10T12:40:24.954Z,74.11
2023-03-10T12:41:24.919Z,74.22
2023-03-10T12:42:26.248Z,74.52
2023-03-10T12:43:24.894Z,74.22
2023-03-10T12:44:24.888Z,75.41
2023-03-10T12:45:24.856Z,75.20
2023-03-10T12:46:24.910Z,76.02
2023-03-10T12:47:24.853Z,74.69
2023-03-10T12:48:24.833Z,74.96
2023-03-10T12:49:24.830Z,75.27
2023-03-10T12:50:24.814Z,77.17
2023-03-10T12:51:24.794Z,77.68
2023-03-10T12:52:24.799Z,76.42